sensor_id;sensor_type;location;lat;lon;timestamp;P1;durP1;ratioP1;P2;durP2;ratioP2
5277;SDS011;2662;51.194;6.614;2023-02-11T00:00:56;33.77;;;14.73;;
5277;SDS011;2662;51.194;6.614;2023-02-11T00:03:22;27.27;;;14.27;;
5277;SDS011;2662;51.194;6.614;2023-02-11T00:05:56;34.13;;;13.77;;
5277;SDS011;2662;51.194;6.614;2023-02-11T00:08:24;33.93;;;14.77;;
5277;SDS011;2662;51.194;6.614;2023-02-11T00:10:51;26.03;;;13.77;;
5277;SDS011;2662;51.194;6.614;2023-02-11T00:13:18;31.43;;;14.73;;
5277;SDS011;2662;51.194;6.614;2023-02-11T00:15:45;30.60;;;14.20;;
5277;SDS011;2662;51.194;6.614;2023-02-11T00:18:13;27.93;;;13.43;;
5277;SDS011;2662;51.194;6.614;2023-02-11T00:20:39;32.47;;;15.30;;
5277;SDS011;2662;51.194;6.614;2023-02-11T00:23:07;27.70;;;14.57;;
5277;SDS011;2662;51.194;6.614;2023-02-11T00:25:37;29.03;;;14.13;;
5277;SDS011;2662;51.194;6.614;2023-02-11T00:28:04;29.67;;;14.60;;
5277;SDS011;2662;51.194;6.614;2023-02-11T00:30:31;32.53;;;14.87;;
5277;SDS011;2662;51.194;6.614;2023-02-11T00:32:57;25.17;;;14.20;;
5277;SDS011;2662;51.194;6.614;2023-02-11T00:35:26;26.77;;;13.70;;
5277;SDS011;2662;51.194;6.614;2023-02-11T00:37:53;26.47;;;14.60;;
5277;SDS011;2662;51.194;6.614;2023-02-11T00:40:20;34.97;;;15.20;;
5277;SDS011;2662;51.194;6.614;2023-02-11T00:42:47;27.07;;;14.00;;
5277;SDS011;2662;51.194;6.614;2023-02-11T00:45:14;33.27;;;15.53;;
5277;SDS011;2662;51.194;6.614;2023-02-11T00:47:41;27.67;;;14.40;;
5277;SDS011;2662;51.194;6.614;2023-02-11T00:50:07;29.60;;;14.87;;
5277;SDS011;2662;51.194;6.614;2023-02-11T00:52:36;27.80;;;15.03;;
5277;SDS011;2662;51.194;6.614;2023-02-11T00:55:02;29.20;;;15.10;;
5277;SDS011;2662;51.194;6.614;2023-02-11T00:57:29;36.70;;;15.83;;
5277;SDS011;2662;51.194;6.614;2023-02-11T00:59:56;31.70;;;14.50;;
5277;SDS011;2662;51.194;6.614;2023-02-11T01:02:23;32.40;;;14.93;;
5277;SDS011;2662;51.194;6.614;2023-02-11T01:04:49;26.37;;;14.30;;
5277;SDS011;2662;51.194;6.614;2023-02-11T01:07:16;35.57;;;15.13;;
5277;SDS011;2662;51.194;6.614;2023-02-11T01:09:44;28.27;;;14.73;;
5277;SDS011;2662;51.194;6.614;2023-02-11T01:12:11;30.90;;;15.30;;
5277;SDS011;2662;51.194;6.614;2023-02-11T01:14:37;34.87;;;16.43;;
5277;SDS011;2662;51.194;6.614;2023-02-11T01:17:04;30.70;;;15.57;;
5277;SDS011;2662;51.194;6.614;2023-02-11T01:19:31;27.20;;;14.27;;
5277;SDS011;2662;51.194;6.614;2023-02-11T01:21:58;31.73;;;14.47;;
5277;SDS011;2662;51.194;6.614;2023-02-11T01:24:25;32.83;;;15.63;;
5277;SDS011;2662;51.194;6.614;2023-02-11T01:26:53;35.33;;;15.23;;
5277;SDS011;2662;51.194;6.614;2023-02-11T01:29:20;31.80;;;14.73;;
5277;SDS011;2662;51.194;6.614;2023-02-11T01:31:47;33.83;;;14.30;;
5277;SDS011;2662;51.194;6.614;2023-02-11T01:34:14;29.77;;;13.97;;
5277;SDS011;2662;51.194;6.614;2023-02-11T01:36:41;27.10;;;14.00;;
5277;SDS011;2662;51.194;6.614;2023-02-11T01:39:08;28.90;;;14.60;;
5277;SDS011;2662;51.194;6.614;2023-02-11T01:41:35;27.27;;;15.13;;
5277;SDS011;2662;51.194;6.614;2023-02-11T01:44:23;32.30;;;14.60;;
5277;SDS011;2662;51.194;6.614;2023-02-11T01:46:51;33.67;;;15.90;;
5277;SDS011;2662;51.194;6.614;2023-02-11T01:49:19;28.20;;;15.07;;
5277;SDS011;2662;51.194;6.614;2023-02-11T01:51:49;29.73;;;15.60;;
5277;SDS011;2662;51.194;6.614;2023-02-11T01:54:21;27.40;;;13.60;;
5277;SDS011;2662;51.194;6.614;2023-02-11T01:57:09;32.60;;;14.53;;
5277;SDS011;2662;51.194;6.614;2023-02-11T01:59:53;26.43;;;13.53;;
5277;SDS011;2662;51.194;6.614;2023-02-11T02:02:28;34.30;;;16.03;;
5277;SDS011;2662;51.194;6.614;2023-02-11T02:05:08;30.57;;;14.43;;
5277;SDS011;2662;51.194;6.614;2023-02-11T02:07:43;27.00;;;13.30;;
5277;SDS011;2662;51.194;6.614;2023-02-11T02:10:18;29.63;;;14.20;;
5277;SDS011;2662;51.194;6.614;2023-02-11T02:12:47;33.77;;;14.23;;
5277;SDS011;2662;51.194;6.614;2023-02-11T02:15:23;28.17;;;14.00;;
5277;SDS011;2662;51.194;6.614;2023-02-11T02:17:57;28.30;;;13.30;;
5277;SDS011;2662;51.194;6.614;2023-02-11T02:20:40;25.17;;;13.60;;
5277;SDS011;2662;51.194;6.614;2023-02-11T02:23:34;29.00;;;14.30;;
5277;SDS011;2662;51.194;6.614;2023-02-11T02:26:18;25.77;;;13.50;;
5277;SDS011;2662;51.194;6.614;2023-02-11T02:29:13;30.57;;;15.83;;
5277;SDS011;2662;51.194;6.614;2023-02-11T02:32:23;31.90;;;14.63;;
5277;SDS011;2662;51.194;6.614;2023-02-11T02:35:09;30.83;;;13.97;;
5277;SDS011;2662;51.194;6.614;2023-02-11T02:37:49;28.77;;;13.10;;
5277;SDS011;2662;51.194;6.614;2023-02-11T02:40:22;22.63;;;11.30;;
5277;SDS011;2662;51.194;6.614;2023-02-11T02:42:54;27.23;;;13.50;;
5277;SDS011;2662;51.194;6.614;2023-02-11T02:45:21;29.37;;;14.30;;
5277;SDS011;2662;51.194;6.614;2023-02-11T02:47:49;26.73;;;13.57;;
5277;SDS011;2662;51.194;6.614;2023-02-11T02:50:16;23.93;;;12.93;;
5277;SDS011;2662;51.194;6.614;2023-02-11T02:52:53;27.93;;;13.70;;
5277;SDS011;2662;51.194;6.614;2023-02-11T02:55:30;26.97;;;14.10;;
5277;SDS011;2662;51.194;6.614;2023-02-11T03:01:06;30.67;;;13.53;;
5277;SDS011;2662;51.194;6.614;2023-02-11T03:03:40;27.30;;;13.60;;
5277;SDS011;2662;51.194;6.614;2023-02-11T03:06:14;26.10;;;13.77;;
5277;SDS011;2662;51.194;6.614;2023-02-11T03:08:47;27.07;;;12.73;;
5277;SDS011;2662;51.194;6.614;2023-02-11T03:11:19;28.33;;;13.40;;
5277;SDS011;2662;51.194;6.614;2023-02-11T03:13:48;28.83;;;14.10;;
5277;SDS011;2662;51.194;6.614;2023-02-11T03:16:17;29.27;;;12.97;;
5277;SDS011;2662;51.194;6.614;2023-02-11T03:18:50;26.37;;;13.30;;
5277;SDS011;2662;51.194;6.614;2023-02-11T03:21:20;26.03;;;14.00;;
5277;SDS011;2662;51.194;6.614;2023-02-11T03:23:49;32.47;;;14.57;;
5277;SDS011;2662;51.194;6.614;2023-02-11T03:26:22;30.50;;;13.63;;
5277;SDS011;2662;51.194;6.614;2023-02-11T03:28:52;33.23;;;13.90;;
5277;SDS011;2662;51.194;6.614;2023-02-11T03:31:26;28.57;;;13.70;;
5277;SDS011;2662;51.194;6.614;2023-02-11T03:33:58;27.10;;;13.93;;
5277;SDS011;2662;51.194;6.614;2023-02-11T03:36:29;30.47;;;13.63;;
5277;SDS011;2662;51.194;6.614;2023-02-11T03:38:59;31.93;;;13.50;;
5277;SDS011;2662;51.194;6.614;2023-02-11T03:41:28;24.53;;;12.67;;
5277;SDS011;2662;51.194;6.614;2023-02-11T03:43:56;26.63;;;13.03;;
5277;SDS011;2662;51.194;6.614;2023-02-11T03:46:26;30.27;;;13.73;;
5277;SDS011;2662;51.194;6.614;2023-02-11T03:49:00;22.80;;;12.37;;
5277;SDS011;2662;51.194;6.614;2023-02-11T03:51:29;34.90;;;14.10;;
5277;SDS011;2662;51.194;6.614;2023-02-11T03:53:58;33.53;;;13.13;;
5277;SDS011;2662;51.194;6.614;2023-02-11T03:56:29;28.50;;;12.33;;
5277;SDS011;2662;51.194;6.614;2023-02-11T03:58:59;26.30;;;12.17;;
5277;SDS011;2662;51.194;6.614;2023-02-11T04:01:26;34.33;;;12.53;;
5277;SDS011;2662;51.194;6.614;2023-02-11T04:03:53;29.33;;;12.93;;
5277;SDS011;2662;51.194;6.614;2023-02-11T04:06:21;30.60;;;12.10;;
5277;SDS011;2662;51.194;6.614;2023-02-11T04:08:47;29.33;;;12.80;;
5277;SDS011;2662;51.194;6.614;2023-02-11T04:11:14;23.87;;;12.90;;
5277;SDS011;2662;51.194;6.614;2023-02-11T04:13:41;34.80;;;14.50;;
5277;SDS011;2662;51.194;6.614;2023-02-11T04:16:07;27.20;;;13.27;;
5277;SDS011;2662;51.194;6.614;2023-02-11T04:18:34;35.50;;;14.43;;
5277;SDS011;2662;51.194;6.614;2023-02-11T04:21:01;31.63;;;14.33;;
5277;SDS011;2662;51.194;6.614;2023-02-11T04:23:29;25.77;;;13.57;;
5277;SDS011;2662;51.194;6.614;2023-02-11T04:25:56;36.50;;;14.67;;
5277;SDS011;2662;51.194;6.614;2023-02-11T04:28:22;40.27;;;13.70;;
5277;SDS011;2662;51.194;6.614;2023-02-11T04:30:50;29.03;;;12.80;;
5277;SDS011;2662;51.194;6.614;2023-02-11T04:33:17;25.00;;;12.27;;
5277;SDS011;2662;51.194;6.614;2023-02-11T04:35:44;29.07;;;13.37;;
5277;SDS011;2662;51.194;6.614;2023-02-11T04:38:10;35.80;;;11.80;;
5277;SDS011;2662;51.194;6.614;2023-02-11T04:40:39;28.63;;;14.03;;
5277;SDS011;2662;51.194;6.614;2023-02-11T04:43:05;34.43;;;12.90;;
5277;SDS011;2662;51.194;6.614;2023-02-11T04:45:32;30.93;;;14.40;;
5277;SDS011;2662;51.194;6.614;2023-02-11T04:48:00;29.47;;;13.73;;
5277;SDS011;2662;51.194;6.614;2023-02-11T04:50:26;26.63;;;13.50;;
5277;SDS011;2662;51.194;6.614;2023-02-11T04:52:53;26.73;;;12.93;;
5277;SDS011;2662;51.194;6.614;2023-02-11T04:55:20;28.23;;;13.83;;
5277;SDS011;2662;51.194;6.614;2023-02-11T04:57:48;25.60;;;12.30;;
5277;SDS011;2662;51.194;6.614;2023-02-11T05:00:15;25.00;;;12.50;;
5277;SDS011;2662;51.194;6.614;2023-02-11T05:02:42;31.30;;;13.23;;
5277;SDS011;2662;51.194;6.614;2023-02-11T05:05:09;34.63;;;14.10;;
5277;SDS011;2662;51.194;6.614;2023-02-11T05:07:35;29.13;;;13.40;;
5277;SDS011;2662;51.194;6.614;2023-02-11T05:10:02;34.73;;;14.40;;
5277;SDS011;2662;51.194;6.614;2023-02-11T05:12:29;26.73;;;12.57;;
5277;SDS011;2662;51.194;6.614;2023-02-11T05:14:57;30.40;;;14.33;;
5277;SDS011;2662;51.194;6.614;2023-02-11T05:17:24;41.10;;;13.80;;
5277;SDS011;2662;51.194;6.614;2023-02-11T05:19:51;33.77;;;13.40;;
5277;SDS011;2662;51.194;6.614;2023-02-11T05:22:17;31.87;;;13.73;;
5277;SDS011;2662;51.194;6.614;2023-02-11T05:24:45;28.03;;;13.20;;
5277;SDS011;2662;51.194;6.614;2023-02-11T05:27:12;26.80;;;12.90;;
5277;SDS011;2662;51.194;6.614;2023-02-11T05:29:39;41.63;;;13.90;;
5277;SDS011;2662;51.194;6.614;2023-02-11T05:32:07;33.83;;;13.43;;
5277;SDS011;2662;51.194;6.614;2023-02-11T05:34:34;29.97;;;13.80;;
5277;SDS011;2662;51.194;6.614;2023-02-11T05:37:00;24.33;;;11.53;;
5277;SDS011;2662;51.194;6.614;2023-02-11T05:39:27;37.70;;;14.10;;
5277;SDS011;2662;51.194;6.614;2023-02-11T05:41:54;29.40;;;13.60;;
5277;SDS011;2662;51.194;6.614;2023-02-11T05:44:20;29.70;;;14.63;;
5277;SDS011;2662;51.194;6.614;2023-02-11T05:46:47;32.93;;;14.53;;
5277;SDS011;2662;51.194;6.614;2023-02-11T05:49:16;33.63;;;14.47;;
5277;SDS011;2662;51.194;6.614;2023-02-11T05:51:43;33.93;;;13.63;;
5277;SDS011;2662;51.194;6.614;2023-02-11T05:54:09;37.53;;;14.20;;
5277;SDS011;2662;51.194;6.614;2023-02-11T05:56:36;32.27;;;13.33;;
5277;SDS011;2662;51.194;6.614;2023-02-11T05:59:03;36.83;;;13.90;;
5277;SDS011;2662;51.194;6.614;2023-02-11T06:01:30;38.20;;;13.60;;
5277;SDS011;2662;51.194;6.614;2023-02-11T06:03:56;36.70;;;15.10;;
5277;SDS011;2662;51.194;6.614;2023-02-11T06:06:24;32.80;;;13.70;;
5277;SDS011;2662;51.194;6.614;2023-02-11T06:08:51;35.10;;;14.93;;
5277;SDS011;2662;51.194;6.614;2023-02-11T06:11:18;34.80;;;13.87;;
5277;SDS011;2662;51.194;6.614;2023-02-11T06:13:45;28.80;;;13.73;;
5277;SDS011;2662;51.194;6.614;2023-02-11T06:16:11;41.00;;;14.63;;
5277;SDS011;2662;51.194;6.614;2023-02-11T06:18:38;36.70;;;14.47;;
5277;SDS011;2662;51.194;6.614;2023-02-11T06:21:05;31.73;;;13.07;;
5277;SDS011;2662;51.194;6.614;2023-02-11T06:23:34;43.53;;;15.37;;
5277;SDS011;2662;51.194;6.614;2023-02-11T06:26:02;33.30;;;13.77;;
5277;SDS011;2662;51.194;6.614;2023-02-11T06:28:29;37.70;;;13.93;;
5277;SDS011;2662;51.194;6.614;2023-02-11T06:30:56;32.30;;;13.63;;
5277;SDS011;2662;51.194;6.614;2023-02-11T06:33:23;34.50;;;13.90;;
5277;SDS011;2662;51.194;6.614;2023-02-11T06:35:50;38.60;;;14.93;;
5277;SDS011;2662;51.194;6.614;2023-02-11T06:38:16;36.53;;;15.30;;
5277;SDS011;2662;51.194;6.614;2023-02-11T06:40:47;35.23;;;15.03;;
5277;SDS011;2662;51.194;6.614;2023-02-11T06:43:14;36.10;;;14.23;;
5277;SDS011;2662;51.194;6.614;2023-02-11T06:45:41;30.90;;;14.00;;
5277;SDS011;2662;51.194;6.614;2023-02-11T06:48:08;43.97;;;14.70;;
5277;SDS011;2662;51.194;6.614;2023-02-11T06:50:35;37.53;;;13.30;;
5277;SDS011;2662;51.194;6.614;2023-02-11T06:53:02;45.47;;;14.63;;
5277;SDS011;2662;51.194;6.614;2023-02-11T06:55:28;36.80;;;14.90;;
5277;SDS011;2662;51.194;6.614;2023-02-11T06:57:56;33.87;;;13.70;;
5277;SDS011;2662;51.194;6.614;2023-02-11T07:00:23;46.23;;;14.47;;
5277;SDS011;2662;51.194;6.614;2023-02-11T07:02:50;44.67;;;14.30;;
5277;SDS011;2662;51.194;6.614;2023-02-11T07:05:17;41.00;;;14.33;;
5277;SDS011;2662;51.194;6.614;2023-02-11T07:07:44;43.53;;;15.17;;
5277;SDS011;2662;51.194;6.614;2023-02-11T07:10:11;44.47;;;14.90;;
5277;SDS011;2662;51.194;6.614;2023-02-11T07:12:38;35.90;;;14.73;;
5277;SDS011;2662;51.194;6.614;2023-02-11T07:15:07;36.43;;;15.17;;
5277;SDS011;2662;51.194;6.614;2023-02-11T07:17:33;36.50;;;14.37;;
5277;SDS011;2662;51.194;6.614;2023-02-11T07:20:00;43.83;;;15.20;;
5277;SDS011;2662;51.194;6.614;2023-02-11T07:22:27;43.77;;;16.17;;
5277;SDS011;2662;51.194;6.614;2023-02-11T07:24:54;44.63;;;15.80;;
5277;SDS011;2662;51.194;6.614;2023-02-11T07:27:20;44.37;;;15.50;;
5277;SDS011;2662;51.194;6.614;2023-02-11T07:29:47;33.43;;;13.67;;
5277;SDS011;2662;51.194;6.614;2023-02-11T07:32:15;44.03;;;15.80;;
5277;SDS011;2662;51.194;6.614;2023-02-11T07:34:42;41.13;;;15.40;;
5277;SDS011;2662;51.194;6.614;2023-02-11T07:37:09;42.57;;;15.60;;
5277;SDS011;2662;51.194;6.614;2023-02-11T07:39:36;39.50;;;15.07;;
5277;SDS011;2662;51.194;6.614;2023-02-11T07:42:02;47.97;;;16.10;;
5277;SDS011;2662;51.194;6.614;2023-02-11T07:44:29;58.60;;;15.60;;
5277;SDS011;2662;51.194;6.614;2023-02-11T07:46:57;34.93;;;15.67;;
5277;SDS011;2662;51.194;6.614;2023-02-11T07:54:30;40.63;;;16.00;;
5277;SDS011;2662;51.194;6.614;2023-02-11T07:56:56;40.70;;;16.20;;
5277;SDS011;2662;51.194;6.614;2023-02-11T07:59:23;43.03;;;16.90;;
5277;SDS011;2662;51.194;6.614;2023-02-11T08:01:51;42.17;;;16.87;;
5277;SDS011;2662;51.194;6.614;2023-02-11T08:04:18;49.50;;;14.93;;
5277;SDS011;2662;51.194;6.614;2023-02-11T08:06:44;41.97;;;15.17;;
5277;SDS011;2662;51.194;6.614;2023-02-11T08:09:13;64.50;;;16.87;;
5277;SDS011;2662;51.194;6.614;2023-02-11T08:11:42;40.50;;;15.53;;
5277;SDS011;2662;51.194;6.614;2023-02-11T08:14:09;52.60;;;16.20;;
5277;SDS011;2662;51.194;6.614;2023-02-11T08:16:36;46.43;;;16.23;;
5277;SDS011;2662;51.194;6.614;2023-02-11T08:19:04;48.40;;;16.23;;
5277;SDS011;2662;51.194;6.614;2023-02-11T08:21:32;44.53;;;15.70;;
5277;SDS011;2662;51.194;6.614;2023-02-11T08:24:01;58.13;;;18.00;;
5277;SDS011;2662;51.194;6.614;2023-02-11T08:26:28;36.57;;;15.50;;
5277;SDS011;2662;51.194;6.614;2023-02-11T08:29:00;47.53;;;15.97;;
5277;SDS011;2662;51.194;6.614;2023-02-11T08:31:31;49.03;;;16.43;;
5277;SDS011;2662;51.194;6.614;2023-02-11T08:33:59;47.17;;;18.00;;
5277;SDS011;2662;51.194;6.614;2023-02-11T08:36:27;38.40;;;16.33;;
5277;SDS011;2662;51.194;6.614;2023-02-11T08:38:55;40.00;;;16.10;;
5277;SDS011;2662;51.194;6.614;2023-02-11T08:41:23;43.43;;;16.50;;
5277;SDS011;2662;51.194;6.614;2023-02-11T08:43:50;43.30;;;17.57;;
5277;SDS011;2662;51.194;6.614;2023-02-11T08:46:18;46.37;;;16.90;;
5277;SDS011;2662;51.194;6.614;2023-02-11T08:48:46;41.67;;;18.20;;
5277;SDS011;2662;51.194;6.614;2023-02-11T08:51:13;47.37;;;17.83;;
5277;SDS011;2662;51.194;6.614;2023-02-11T08:53:42;46.33;;;17.30;;
5277;SDS011;2662;51.194;6.614;2023-02-11T08:56:09;44.27;;;17.00;;
5277;SDS011;2662;51.194;6.614;2023-02-11T08:58:36;45.70;;;17.80;;
5277;SDS011;2662;51.194;6.614;2023-02-11T09:01:07;52.93;;;18.47;;
5277;SDS011;2662;51.194;6.614;2023-02-11T09:03:36;55.17;;;18.87;;
5277;SDS011;2662;51.194;6.614;2023-02-11T09:06:03;52.87;;;18.60;;
5277;SDS011;2662;51.194;6.614;2023-02-11T09:08:32;51.47;;;18.20;;
5277;SDS011;2662;51.194;6.614;2023-02-11T09:11:00;45.83;;;18.27;;
5277;SDS011;2662;51.194;6.614;2023-02-11T09:13:27;50.13;;;17.43;;
5277;SDS011;2662;51.194;6.614;2023-02-11T09:15:54;46.10;;;17.33;;
5277;SDS011;2662;51.194;6.614;2023-02-11T09:18:21;41.80;;;16.87;;
5277;SDS011;2662;51.194;6.614;2023-02-11T09:20:49;50.20;;;17.47;;
5277;SDS011;2662;51.194;6.614;2023-02-11T09:23:16;41.93;;;17.87;;
5277;SDS011;2662;51.194;6.614;2023-02-11T09:25:43;46.27;;;17.70;;
5277;SDS011;2662;51.194;6.614;2023-02-11T09:28:09;47.67;;;19.67;;
5277;SDS011;2662;51.194;6.614;2023-02-11T09:30:36;50.17;;;18.80;;
5277;SDS011;2662;51.194;6.614;2023-02-11T09:33:03;53.07;;;19.33;;
5277;SDS011;2662;51.194;6.614;2023-02-11T09:35:30;49.73;;;18.53;;
5277;SDS011;2662;51.194;6.614;2023-02-11T09:37:59;44.10;;;19.17;;
5277;SDS011;2662;51.194;6.614;2023-02-11T09:40:26;51.57;;;18.87;;
5277;SDS011;2662;51.194;6.614;2023-02-11T09:42:53;46.97;;;17.13;;
5277;SDS011;2662;51.194;6.614;2023-02-11T09:45:29;54.00;;;20.73;;
5277;SDS011;2662;51.194;6.614;2023-02-11T09:47:57;49.90;;;18.70;;
5277;SDS011;2662;51.194;6.614;2023-02-11T09:50:27;44.10;;;18.27;;
5277;SDS011;2662;51.194;6.614;2023-02-11T09:52:58;47.50;;;17.50;;
5277;SDS011;2662;51.194;6.614;2023-02-11T09:55:30;59.27;;;19.87;;
5277;SDS011;2662;51.194;6.614;2023-02-11T09:58:01;50.17;;;18.83;;
5277;SDS011;2662;51.194;6.614;2023-02-11T10:00:31;44.97;;;18.70;;
5277;SDS011;2662;51.194;6.614;2023-02-11T10:03:23;55.40;;;18.20;;
5277;SDS011;2662;51.194;6.614;2023-02-11T10:06:24;53.20;;;19.17;;
5277;SDS011;2662;51.194;6.614;2023-02-11T10:09:05;48.20;;;19.17;;
5277;SDS011;2662;51.194;6.614;2023-02-11T10:11:47;55.80;;;19.97;;
5277;SDS011;2662;51.194;6.614;2023-02-11T10:14:40;53.70;;;17.77;;
5277;SDS011;2662;51.194;6.614;2023-02-11T10:17:20;46.33;;;18.00;;
5277;SDS011;2662;51.194;6.614;2023-02-11T10:20:03;51.10;;;18.90;;
5277;SDS011;2662;51.194;6.614;2023-02-11T10:22:44;48.57;;;18.67;;
5277;SDS011;2662;51.194;6.614;2023-02-11T10:25:18;49.43;;;18.40;;
5277;SDS011;2662;51.194;6.614;2023-02-11T10:27:47;55.10;;;19.37;;
5277;SDS011;2662;51.194;6.614;2023-02-11T10:30:18;47.60;;;18.13;;
5277;SDS011;2662;51.194;6.614;2023-02-11T10:32:50;51.70;;;21.10;;
5277;SDS011;2662;51.194;6.614;2023-02-11T10:35:20;53.23;;;20.07;;
5277;SDS011;2662;51.194;6.614;2023-02-11T10:37:48;47.13;;;19.00;;
5277;SDS011;2662;51.194;6.614;2023-02-11T10:40:17;47.63;;;19.67;;
5277;SDS011;2662;51.194;6.614;2023-02-11T10:42:46;48.63;;;18.63;;
5277;SDS011;2662;51.194;6.614;2023-02-11T10:45:16;46.50;;;19.07;;
5277;SDS011;2662;51.194;6.614;2023-02-11T10:47:48;57.73;;;19.43;;
5277;SDS011;2662;51.194;6.614;2023-02-11T10:50:20;60.83;;;21.13;;
5277;SDS011;2662;51.194;6.614;2023-02-11T10:52:48;49.60;;;19.30;;
5277;SDS011;2662;51.194;6.614;2023-02-11T10:55:17;49.27;;;20.10;;
5277;SDS011;2662;51.194;6.614;2023-02-11T10:57:49;50.13;;;19.57;;
5277;SDS011;2662;51.194;6.614;2023-02-11T11:00:22;53.53;;;21.13;;
5277;SDS011;2662;51.194;6.614;2023-02-11T11:02:57;60.17;;;19.20;;
5277;SDS011;2662;51.194;6.614;2023-02-11T11:05:27;56.87;;;21.17;;
5277;SDS011;2662;51.194;6.614;2023-02-11T11:07:57;61.53;;;21.90;;
5277;SDS011;2662;51.194;6.614;2023-02-11T11:10:28;61.67;;;23.10;;
5277;SDS011;2662;51.194;6.614;2023-02-11T11:13:13;64.63;;;22.60;;
5277;SDS011;2662;51.194;6.614;2023-02-11T11:16:05;55.73;;;22.67;;
5277;SDS011;2662;51.194;6.614;2023-02-11T11:18:43;53.87;;;21.93;;
5277;SDS011;2662;51.194;6.614;2023-02-11T11:21:13;50.97;;;20.27;;
5277;SDS011;2662;51.194;6.614;2023-02-11T11:23:46;56.70;;;21.40;;
5277;SDS011;2662;51.194;6.614;2023-02-11T11:26:20;56.67;;;20.93;;
5277;SDS011;2662;51.194;6.614;2023-02-11T11:28:55;57.93;;;21.40;;
5277;SDS011;2662;51.194;6.614;2023-02-11T11:31:24;65.83;;;22.70;;
5277;SDS011;2662;51.194;6.614;2023-02-11T11:33:55;60.70;;;20.70;;
5277;SDS011;2662;51.194;6.614;2023-02-11T11:36:30;64.83;;;23.30;;
5277;SDS011;2662;51.194;6.614;2023-02-11T11:39:00;61.53;;;22.60;;
5277;SDS011;2662;51.194;6.614;2023-02-11T11:41:36;64.60;;;20.20;;
5277;SDS011;2662;51.194;6.614;2023-02-11T11:44:17;62.57;;;21.20;;
5277;SDS011;2662;51.194;6.614;2023-02-11T11:46:50;54.63;;;20.60;;
5277;SDS011;2662;51.194;6.614;2023-02-11T11:49:30;62.63;;;21.80;;
5277;SDS011;2662;51.194;6.614;2023-02-11T11:52:08;59.77;;;21.43;;
5277;SDS011;2662;51.194;6.614;2023-02-11T11:54:43;53.33;;;21.40;;
5277;SDS011;2662;51.194;6.614;2023-02-11T11:57:16;67.93;;;23.37;;
5277;SDS011;2662;51.194;6.614;2023-02-11T11:59:47;63.03;;;23.40;;
5277;SDS011;2662;51.194;6.614;2023-02-11T12:02:19;62.23;;;21.37;;
5277;SDS011;2662;51.194;6.614;2023-02-11T12:05:00;63.37;;;23.10;;
5277;SDS011;2662;51.194;6.614;2023-02-11T12:07:35;65.23;;;21.70;;
5277;SDS011;2662;51.194;6.614;2023-02-11T12:10:20;54.97;;;22.03;;
5277;SDS011;2662;51.194;6.614;2023-02-11T12:13:02;52.80;;;20.37;;
5277;SDS011;2662;51.194;6.614;2023-02-11T12:15:42;56.13;;;20.80;;
5277;SDS011;2662;51.194;6.614;2023-02-11T12:18:24;66.50;;;21.40;;
5277;SDS011;2662;51.194;6.614;2023-02-11T12:21:14;56.07;;;22.27;;
5277;SDS011;2662;51.194;6.614;2023-02-11T12:23:56;56.83;;;21.57;;
5277;SDS011;2662;51.194;6.614;2023-02-11T12:26:33;52.60;;;20.03;;
5277;SDS011;2662;51.194;6.614;2023-02-11T12:29:13;48.53;;;20.60;;
5277;SDS011;2662;51.194;6.614;2023-02-11T12:31:59;58.03;;;20.57;;
5277;SDS011;2662;51.194;6.614;2023-02-11T12:34:48;65.43;;;24.20;;
5277;SDS011;2662;51.194;6.614;2023-02-11T12:37:36;61.47;;;23.27;;
5277;SDS011;2662;51.194;6.614;2023-02-11T12:40:12;57.90;;;23.07;;
5277;SDS011;2662;51.194;6.614;2023-02-11T12:42:49;47.53;;;21.27;;
5277;SDS011;2662;51.194;6.614;2023-02-11T12:46:04;45.60;;;21.50;;
5277;SDS011;2662;51.194;6.614;2023-02-11T12:48:39;58.80;;;21.50;;
5277;SDS011;2662;51.194;6.614;2023-02-11T12:51:26;52.43;;;21.77;;
5277;SDS011;2662;51.194;6.614;2023-02-11T12:54:14;50.27;;;21.57;;
5277;SDS011;2662;51.194;6.614;2023-02-11T12:56:51;56.17;;;20.80;;
5277;SDS011;2662;51.194;6.614;2023-02-11T12:59:34;53.47;;;21.83;;
5277;SDS011;2662;51.194;6.614;2023-02-11T13:02:16;48.73;;;20.50;;
5277;SDS011;2662;51.194;6.614;2023-02-11T13:04:50;51.80;;;21.70;;
5277;SDS011;2662;51.194;6.614;2023-02-11T13:07:22;54.93;;;20.30;;
5277;SDS011;2662;51.194;6.614;2023-02-11T13:09:56;51.50;;;20.50;;
5277;SDS011;2662;51.194;6.614;2023-02-11T13:12:29;49.10;;;19.20;;
5277;SDS011;2662;51.194;6.614;2023-02-11T13:15:16;50.33;;;20.93;;
5277;SDS011;2662;51.194;6.614;2023-02-11T13:17:47;51.07;;;20.67;;
5277;SDS011;2662;51.194;6.614;2023-02-11T13:20:25;54.03;;;19.87;;
5277;SDS011;2662;51.194;6.614;2023-02-11T13:23:01;46.00;;;19.13;;
5277;SDS011;2662;51.194;6.614;2023-02-11T13:25:37;57.23;;;20.60;;
5277;SDS011;2662;51.194;6.614;2023-02-11T13:28:14;53.60;;;21.97;;
5277;SDS011;2662;51.194;6.614;2023-02-11T13:30:48;46.70;;;19.60;;
5277;SDS011;2662;51.194;6.614;2023-02-11T13:33:34;52.77;;;20.33;;
5277;SDS011;2662;51.194;6.614;2023-02-11T13:36:13;54.63;;;20.87;;
5277;SDS011;2662;51.194;6.614;2023-02-11T13:38:50;58.83;;;20.87;;
5277;SDS011;2662;51.194;6.614;2023-02-11T13:41:23;50.47;;;21.23;;
5277;SDS011;2662;51.194;6.614;2023-02-11T13:43:57;55.73;;;20.27;;
5277;SDS011;2662;51.194;6.614;2023-02-11T13:46:47;46.37;;;19.30;;
5277;SDS011;2662;51.194;6.614;2023-02-11T13:49:20;46.10;;;20.37;;
5277;SDS011;2662;51.194;6.614;2023-02-11T13:51:49;49.43;;;21.37;;
5277;SDS011;2662;51.194;6.614;2023-02-11T13:54:19;52.37;;;20.60;;
5277;SDS011;2662;51.194;6.614;2023-02-11T13:59:52;53.67;;;21.20;;
5277;SDS011;2662;51.194;6.614;2023-02-11T14:02:21;56.10;;;21.37;;
5277;SDS011;2662;51.194;6.614;2023-02-11T14:08:15;53.30;;;20.87;;
5277;SDS011;2662;51.194;6.614;2023-02-11T14:11:02;48.47;;;19.37;;
5277;SDS011;2662;51.194;6.614;2023-02-11T14:16:29;57.07;;;23.67;;
5277;SDS011;2662;51.194;6.614;2023-02-11T14:18:59;56.53;;;23.73;;
5277;SDS011;2662;51.194;6.614;2023-02-11T14:21:35;58.83;;;22.70;;
5277;SDS011;2662;51.194;6.614;2023-02-11T14:27:14;44.27;;;19.77;;
5277;SDS011;2662;51.194;6.614;2023-02-11T14:29:52;47.03;;;18.40;;
5277;SDS011;2662;51.194;6.614;2023-02-11T14:32:37;50.43;;;20.50;;
5277;SDS011;2662;51.194;6.614;2023-02-11T14:35:13;50.87;;;20.13;;
5277;SDS011;2662;51.194;6.614;2023-02-11T14:37:50;49.87;;;20.97;;
5277;SDS011;2662;51.194;6.614;2023-02-11T14:40:26;51.57;;;20.07;;
5277;SDS011;2662;51.194;6.614;2023-02-11T14:42:56;48.60;;;21.90;;
5277;SDS011;2662;51.194;6.614;2023-02-11T14:45:33;49.37;;;21.43;;
5277;SDS011;2662;51.194;6.614;2023-02-11T14:48:03;48.37;;;20.57;;
5277;SDS011;2662;51.194;6.614;2023-02-11T14:50:33;56.80;;;22.50;;
5277;SDS011;2662;51.194;6.614;2023-02-11T14:53:10;46.30;;;19.87;;
5277;SDS011;2662;51.194;6.614;2023-02-11T14:55:41;57.33;;;22.00;;
5277;SDS011;2662;51.194;6.614;2023-02-11T14:58:14;55.53;;;21.40;;
5277;SDS011;2662;51.194;6.614;2023-02-11T15:00:50;46.53;;;20.87;;
5277;SDS011;2662;51.194;6.614;2023-02-11T15:03:25;55.13;;;21.67;;
5277;SDS011;2662;51.194;6.614;2023-02-11T15:05:54;64.07;;;23.00;;
5277;SDS011;2662;51.194;6.614;2023-02-11T15:08:24;62.40;;;23.37;;
5277;SDS011;2662;51.194;6.614;2023-02-11T15:10:51;51.70;;;22.47;;
5277;SDS011;2662;51.194;6.614;2023-02-11T15:13:20;59.30;;;21.23;;
5277;SDS011;2662;51.194;6.614;2023-02-11T15:15:51;44.23;;;20.43;;
5277;SDS011;2662;51.194;6.614;2023-02-11T15:18:23;55.97;;;22.13;;
5277;SDS011;2662;51.194;6.614;2023-02-11T15:20:58;55.83;;;22.90;;
5277;SDS011;2662;51.194;6.614;2023-02-11T15:23:27;56.90;;;22.03;;
5277;SDS011;2662;51.194;6.614;2023-02-11T15:25:55;57.13;;;23.63;;
5277;SDS011;2662;51.194;6.614;2023-02-11T15:28:28;61.13;;;23.20;;
5277;SDS011;2662;51.194;6.614;2023-02-11T15:30:57;58.67;;;22.60;;
5277;SDS011;2662;51.194;6.614;2023-02-11T15:33:25;49.50;;;21.47;;